createdAt,value
2017-08-12T00:00:50.052Z,99893.74
2017-08-12T00:21:45.192Z,99912.58
2017-08-12T00:32:08.538Z,99907.97
2017-08-12T00:47:49.097Z,99922.66
2017-08-12T00:58:11.786Z,99929.33
2017-08-12T01:08:34.460Z,99928.66
2017-08-12T01:29:35.051Z,99921.95
2017-08-12T01:50:42.706Z,99900.94
2017-08-12T02:01:04.519Z,99898.77
2017-08-12T02:22:01.905Z,99874.57
2017-08-12T02:32:25.505Z,99851.33
2017-08-12T02:42:48.743Z,99852.95
2017-08-12T02:53:23.203Z,99849.10
2017-08-12T03:07:17.177Z,99835.52
2017-08-12T03:38:43.266Z,99842.36
2017-08-12T03:49:05.069Z,99835.82
2017-08-12T03:59:27.897Z,99851.30
2017-08-12T04:09:50.505Z,99847.92
2017-08-12T04:20:13.046Z,99860.39
2017-08-12T04:30:35.645Z,99864.11
2017-08-12T04:46:16.104Z,99859.46
2017-08-12T04:56:38.785Z,99853.42
2017-08-12T05:07:00.763Z,99848.28
2017-08-12T05:17:23.308Z,99850.18
2017-08-12T05:27:46.029Z,99842.16
2017-08-12T05:38:07.830Z,99840.27
2017-08-12T05:52:49.732Z,99835.63
2017-08-12T06:03:11.730Z,99842.81
2017-08-12T06:13:36.521Z,99842.83
2017-08-12T06:23:59.247Z,99871.65
2017-08-12T06:34:21.881Z,99872.14
2017-08-12T06:44:44.575Z,99873.18
2017-08-12T06:55:11.155Z,99879.95
2017-08-12T07:05:34.463Z,99880.33
2017-08-12T07:15:56.383Z,99874.98
2017-08-12T07:26:20.578Z,99874.46
2017-08-12T07:36:48.139Z,99855.45
2017-08-12T07:47:11.115Z,99855.13
2017-08-12T07:57:33.886Z,99864.80
2017-08-12T08:07:55.866Z,99871.36
2017-08-12T08:18:18.556Z,99878.91
2017-08-12T08:28:41.379Z,99874.42
2017-08-12T08:39:03.504Z,99880.20
2017-08-12T08:49:26.908Z,99883.16
2017-08-12T08:59:49.981Z,99887.53
2017-08-12T09:10:12.711Z,99896.78
2017-08-12T09:20:35.342Z,99890.70
2017-08-12T09:30:58.173Z,99896.61
2017-08-12T09:46:35.988Z,99903.70
2017-08-12T09:56:57.269Z,99901.27
2017-08-12T10:07:19.224Z,99902.47
2017-08-12T10:17:41.937Z,99901.95
2017-08-12T10:28:03.993Z,99911.80
2017-08-12T10:38:26.587Z,99902.12
2017-08-12T10:48:49.474Z,99902.37
2017-08-12T10:53:55.379Z,99903.64
2017-08-12T11:04:18.083Z,99898.41
2017-08-12T11:14:55.114Z,99889.24
2017-08-12T11:30:43.303Z,99887.73
2017-08-12T11:41:22.208Z,99892.67
2017-08-12T12:29:10.088Z,99891.75
2017-08-12T12:39:37.100Z,99898.54
2017-08-12T12:50:01.721Z,99894.30
2017-08-12T13:11:29.024Z,99891.59
2017-08-12T13:21:50.810Z,99890.61
2017-08-12T13:32:13.506Z,99891.57
2017-08-12T13:47:51.934Z,99886.15
2017-08-12T13:58:12.994Z,99878.70
2017-08-12T14:08:42.191Z,99881.50
2017-08-12T14:19:08.048Z,99885.20
2017-08-12T14:29:35.773Z,99882.96
2017-08-12T14:40:01.636Z,99889.50
2017-08-12T14:50:28.140Z,99900.84
2017-08-12T15:06:14.861Z,99920.29
2017-08-12T15:16:40.921Z,99924.13
2017-08-12T15:27:08.549Z,99930.66
2017-08-12T15:48:14.283Z,99919.16
2017-08-12T15:58:35.879Z,99926.70
2017-08-12T16:09:02.967Z,99924.51
2017-08-12T16:19:25.483Z,99929.16
2017-08-12T16:29:48.148Z,99922.50
2017-08-12T16:55:59.105Z,99928.06
2017-08-12T17:06:21.812Z,99925.40
2017-08-12T17:16:44.440Z,99929.48
2017-08-12T17:27:06.327Z,99936.88
2017-08-12T17:37:29.036Z,99930.68
2017-08-12T17:47:55.626Z,99932.05
2017-08-12T17:58:20.541Z,99928.42
2017-08-12T18:08:42.237Z,99933.80
2017-08-12T18:19:08.819Z,99964.06
2017-08-12T18:24:14.657Z,99968.48
2017-08-12T18:34:37.299Z,99960.51
2017-08-12T18:50:16.053Z,99983.61
2017-08-12T19:00:38.138Z,99985.94
2017-08-12T19:11:05.793Z,99997.92
2017-08-12T19:21:29.004Z,100015.03
2017-08-12T19:31:54.609Z,100021.18
2017-08-12T20:08:55.868Z,100042.50
2017-08-12T20:19:18.442Z,100048.48
2017-08-12T20:29:53.434Z,100042.05
2017-08-12T20:45:38.336Z,100060.92
2017-08-12T20:56:05.025Z,100048.33
2017-08-12T21:06:36.556Z,100056.20
2017-08-12T21:27:44.114Z,100061.52
2017-08-12T21:38:06.643Z,100057.23
2017-08-12T21:48:29.224Z,100054.96
2017-08-12T22:04:21.661Z,100056.27
2017-08-12T22:14:48.249Z,100059.29
2017-08-12T22:25:10.015Z,100057.91
2017-08-12T22:35:32.614Z,100070.89
2017-08-12T22:45:55.172Z,100084.61
2017-08-12T22:56:21.749Z,100081.36
2017-08-12T23:06:43.560Z,100080.48
2017-08-12T23:17:05.357Z,100093.05
2017-08-12T23:27:27.150Z,100094.81
2017-08-12T23:37:51.681Z,100073.56
2017-08-12T23:48:14.296Z,100078.73
2017-08-12T23:58:36.860Z,100086.64
